18. August 2022

Uhrzeit Code Wetter Temp. Sichtweite Wolkendecke Wind METAR/SPECI
14:20
V
24 °C 10 km+ 5.000 ft 240° 240° 5 kt METAR ETND 181220Z 24005KT 9999 SCT023 BKN050 24/16 Q1013 BLU
14:00
V
24 °C 10 km+ 4.500 ft Var Var 3 kt METAR ETND 181200Z VRB03KT 9999 SCT022 BKN045 24/17 Q1013 BLU FCST CANCEL
13:39
V
23 °C 10 km+ 4.500 ft 250° 250° 5 kt METAR ETND 181139Z 25005KT 9999 SCT022 BKN045 23/17 Q1013 BLU BLU+ TEMPO WHT
13:20
M
23 °C 10 km+ 2.000 ft 270° 270° 4 kt METAR ETND 181120Z 27004KT 9999 BKN020 BKN045 23/17 Q1013 WHT BLU+ TEMPO WHT
12:20
M
22 °C 10 km+ 1.600 ft 280° 280° 4 kt METAR ETND 181020Z 28004KT 9999 BKN016 22/17 Q1013 WHT BLU+ TEMPO WHT
12:00
M
22 °C 10 km+ 1.500 ft 290° 290° 4 kt METAR ETND 181000Z 29004KT 9999 BKN015 22/18 Q1013 WHT WHT BECMG BLU+
11:20
M
21 °C 10 km+ 1.300 ft 270° 270° 4 kt METAR ETND 180920Z 27004KT 9999 BKN013 21/17 Q1013 GRN GRN BECMG BLU+
10:20
M
20 °C 9 km 1.000 ft 280° 280° 5 kt METAR ETND 180820Z 28005KT 9000 FEW007 BKN010 20/17 Q1013 GRN GRN BECMG BLU+
09:45
I
19 °C 8 km 800 ft 280° 280° 7 kt METAR ETND 180745Z 28007KT 8000 FEW006 BKN008 19/17 Q1013 GRN GRN BECMG BLU+
09:20
I
19 °C 6 km 700 ft 260° 260° 6 kt METAR ETND 180720Z 26006KT 6000 FEW005 BKN007 19/17 Q1013 GRN GRN BECMG BLU+
09:01
I
18 °C 5 km 600 ft 290° 290° 5 kt METAR ETND 180701Z 29005KT 5000 BR FEW005 BKN006 18/17 Q1012 YLO YLO BECMG GRN
08:20
I
18 °C 3,7 km 600 ft 280° 280° 6 kt METAR ETND 180620Z 28006KT 3700 BR FEW005 BKN006 18/17 Q1012 YLO YLO BECMG GRN
07:49
I
18 °C 3,7 km 600 ft 270° 270° 5 kt METAR ETND 180549Z 27005KT 3700 BR FEW003 BKN006 18/17 Q1012 YLO YLO BECMG GRN
07:20
I
18 °C 2 km 600 ft 240° 240° 6 kt METAR ETND 180520Z 24006KT 2000 VCFG BR SCT001 BKN006 18/18 Q1012 YLO YLO BECMG GRN
06:53
L
17 °C 1,5 km 100 ft 250° 250° 6 kt METAR ETND 180453Z 25006KT 1500 VCFG BR OVC001 17/17 Q1012 RED RED BECMG YLO
06:41
L
17 °C 800 m 100 ft 240° 240° 6 kt METAR ETND 180441Z 24006KT 0800 FG OVC001 17/17 Q1012 RED RED BECMG YLO
06:20
L
16 °C 100 m 100 ft 210° 210° 6 kt METAR ETND 180420Z 21006KT 0100 FG VV001 16/16 Q1012 RED RED BECMG YLO

17. August 2022

Uhrzeit Code Wetter Temp. Sichtweite Wolkendecke Wind METAR/SPECI
14:20
V
29 °C 10 km+ 15.000 ft 100° 100° 8 kt METAR ETND 171220Z 10008KT 9999 FEW050 BKN150 BKN240 29/14 Q1010 BLU
13:20
V
28 °C 10 km+ 24.000 ft 060° 060° 3 kt METAR ETND 171120Z 06003KT 9999 FEW130 SCT160 BKN240 28/17 Q1010 BLU+
12:20
V
27 °C 10 km+ 13.000 ft 080° 080° 4 kt METAR ETND 171020Z 08004KT 9999 BKN130 BKN240 27/16 Q1011 BLU
11:36
V
25 °C 10 km+ 16.000 ft 090° 090° 4 kt METAR ETND 170936Z 09004KT 9999 FEW100 BKN160 25/17 Q1011 BLU FCST CANCEL
11:20
V
25 °C 10 km+ 16.000 ft 070° 070° 4 kt METAR ETND 170920Z 07004KT 9999 FEW100 BKN160 25/17 Q1011 BLU BLU
10:20
V
23 °C 10 km+ 18.000 ft Var Var 2 kt METAR ETND 170820Z VRB02KT 9999 FEW100 BKN180 23/17 Q1011 BLU BLU
09:38
V
21 °C 8 km 19.000 ft 070° 070° 2 kt METAR ETND 170738Z 07002KT 8000 FEW100 BKN190 21/17 Q1011 BLU BLU
09:20
M
21 °C 7 km 19.000 ft 080° 080° 2 kt METAR ETND 170720Z 08002KT 7000 FEW080 BKN190 21/17 Q1010 WHT WHT BECMG BLU
08:20
M
18 °C 5 km 20.000 ft Var Var 1 kt METAR ETND 170620Z VRB01KT 5000 VCFG BR FEW080 SCT110 BKN200 18/17 Q1011 WHT WHT BECMG BLU
08:09
M
18 °C 5 km 20.000 ft 110° 110° 1 kt METAR ETND 170609Z 11001KT 5000 VCFG BR FEW080 SCT110 BKN200 18/16 Q1011 WHT WHT BECMG BLU
07:45
I
17 °C 3,7 km 30.000 ft 220° 220° 1 kt METAR ETND 170545Z 22001KT 3700 VCFG MIFG SCT110 SCT200 BKN300 17/16 Q1011 GRN GRN BECMG BLU
07:20
I
17 °C 3 km 30.000 ft Var 000° 0 kt METAR ETND 170520Z 00000KT 3000 VCFG MIFG SCT200 BKN300 17/15 Q1010 YLO YLO BECMG BLU
07:15
I
17 °C 1,6 km 30.000 ft Var 000° 0 kt METAR ETND 170515Z 00000KT 1600 VCFG MIFG FEW210 BKN300 17/15 Q1010 YLO YLO BECMG BLU
07:04
L
16 °C 800 m 30.000 ft 060° 060° 1 kt METAR ETND 170504Z 06001KT 0800 FG FEW240 BKN300 16/15 Q1010 AMB RED BECMG BLU
06:20
L
15 °C 50 m 30.000 ft Var 000° 0 kt METAR ETND 170420Z 00000KT 0050 FG FEW240 BKN300 15/14 Q1010 RED RED BECMG BLU
Ältere Daten

Wir und Dritte verfolgen dein Internetverhalten auf unserer Website mit Cookies. Wenn du fortfährst, gehen wir davon aus, dass du mit unserer Cookie-Richtlinie einverstanden bist. Mehr erfahren